createdAt,value
2019-05-15T00:01:08.493Z,80.80
2019-05-15T00:03:38.845Z,81.00
2019-05-15T00:06:08.419Z,80.80
2019-05-15T00:08:38.701Z,80.60
2019-05-15T00:11:08.318Z,81.70
2019-05-15T00:13:38.968Z,82.10
2019-05-15T00:16:08.434Z,83.90
2019-05-15T00:18:38.990Z,83.50
2019-05-15T00:21:53.000Z,84.30
2019-05-15T00:24:21.423Z,85.30
2019-05-15T00:26:49.853Z,85.90
2019-05-15T00:29:19.785Z,85.90
2019-05-15T00:31:48.675Z,87.30
2019-05-15T00:34:18.318Z,86.70
2019-05-15T00:36:48.943Z,89.10
2019-05-15T00:39:18.953Z,89.40
2019-05-15T00:41:54.103Z,90.40
2019-05-15T00:44:18.698Z,90.80
2019-05-15T00:46:48.806Z,91.40
2019-05-15T00:49:18.893Z,92.10
2019-05-15T00:51:48.655Z,93.10
2019-05-15T00:54:19.171Z,93.50
2019-05-15T00:56:48.437Z,93.80
2019-05-15T00:59:26.308Z,95.10
2019-05-15T01:01:48.730Z,96.30
2019-05-15T01:04:18.699Z,96.20
2019-05-15T01:06:49.121Z,96.00
2019-05-15T01:09:18.669Z,97.40
2019-05-15T01:11:48.788Z,97.50
2019-05-15T01:14:18.623Z,98.00
2019-05-15T01:16:48.970Z,99.40
2019-05-15T01:19:18.544Z,99.90
2019-05-15T01:21:48.135Z,99.90
2019-05-15T01:24:18.715Z,99.90
2019-05-15T01:26:49.031Z,99.90
2019-05-15T01:29:18.274Z,99.90
2019-05-15T01:31:48.954Z,99.90
2019-05-15T01:34:18.443Z,99.90
2019-05-15T01:36:48.884Z,99.90
2019-05-15T01:39:18.524Z,99.90
2019-05-15T01:41:49.659Z,99.90
2019-05-15T01:44:18.042Z,99.90
2019-05-15T01:46:48.331Z,99.90
2019-05-15T01:49:18.518Z,99.90
2019-05-15T01:51:47.949Z,99.90
2019-05-15T01:54:18.717Z,99.90
2019-05-15T01:56:49.232Z,99.90
2019-05-15T01:59:18.789Z,99.90
2019-05-15T02:01:48.533Z,99.90
2019-05-15T02:04:19.702Z,99.90
2019-05-15T02:06:48.237Z,99.90
2019-05-15T02:09:18.519Z,99.90
2019-05-15T02:11:48.916Z,99.90
2019-05-15T02:14:18.991Z,99.90
2019-05-15T02:16:48.347Z,99.90
2019-05-15T02:19:19.216Z,99.90
2019-05-15T02:21:48.664Z,99.90
2019-05-15T02:24:18.860Z,99.90
2019-05-15T02:26:48.244Z,99.90
2019-05-15T02:29:20.388Z,99.90
2019-05-15T02:31:50.015Z,99.90
2019-05-15T02:34:19.442Z,99.90
2019-05-15T02:36:49.260Z,99.90
2019-05-15T02:39:18.934Z,99.90
2019-05-15T02:41:49.246Z,99.90
2019-05-15T02:44:19.918Z,99.90
2019-05-15T02:46:49.939Z,99.90
2019-05-15T02:49:19.234Z,99.90
2019-05-15T02:51:49.417Z,99.90
2019-05-15T02:54:19.617Z,99.90
2019-05-15T02:56:49.880Z,99.90
2019-05-15T02:59:19.464Z,99.90
2019-05-15T03:01:49.344Z,99.90
2019-05-15T03:04:19.951Z,99.90
2019-05-15T03:06:49.970Z,99.90
2019-05-15T03:09:18.952Z,99.90
2019-05-15T03:11:49.405Z,99.90
2019-05-15T03:14:21.160Z,99.90
2019-05-15T03:16:49.737Z,99.90
2019-05-15T03:19:19.288Z,99.90
2019-05-15T03:21:49.770Z,99.90
2019-05-15T03:24:19.546Z,99.90
2019-05-15T03:26:49.675Z,99.90
2019-05-15T03:29:20.895Z,99.90
2019-05-15T03:32:00.774Z,99.90
2019-05-15T03:34:23.316Z,99.90
2019-05-15T03:36:52.966Z,99.90
2019-05-15T03:39:19.296Z,99.90
2019-05-15T03:41:49.726Z,99.90
2019-05-15T03:44:19.727Z,99.90
2019-05-15T03:46:49.198Z,99.90
2019-05-15T03:49:19.876Z,99.90
2019-05-15T03:51:50.082Z,99.90
2019-05-15T03:54:18.919Z,99.90
2019-05-15T03:56:49.827Z,99.90
2019-05-15T03:59:19.243Z,99.90
2019-05-15T04:01:49.652Z,99.90
2019-05-15T04:04:18.888Z,99.90
2019-05-15T04:06:49.967Z,99.90
2019-05-15T04:09:18.999Z,99.90
2019-05-15T04:11:49.749Z,99.90
2019-05-15T04:14:19.344Z,99.90
2019-05-15T04:16:49.672Z,99.90
2019-05-15T04:19:19.240Z,99.90
2019-05-15T04:21:49.417Z,99.90
2019-05-15T04:24:19.282Z,99.90
2019-05-15T04:26:48.953Z,99.90
2019-05-15T04:29:19.385Z,99.90
2019-05-15T04:31:55.655Z,99.90
2019-05-15T04:34:19.465Z,99.90
2019-05-15T04:36:49.810Z,99.90
2019-05-15T04:39:19.323Z,99.90
2019-05-15T04:41:50.069Z,99.90
2019-05-15T04:44:19.326Z,99.90
2019-05-15T04:46:49.884Z,99.90
2019-05-15T04:49:19.254Z,99.90
2019-05-15T04:51:49.660Z,99.90
2019-05-15T04:54:19.972Z,99.90
2019-05-15T04:56:49.023Z,99.90
2019-05-15T04:59:19.633Z,99.90
2019-05-15T05:01:51.291Z,99.90
2019-05-15T05:04:18.856Z,99.90
2019-05-15T05:06:49.448Z,99.90
2019-05-15T05:09:19.862Z,99.90
2019-05-15T05:11:48.923Z,99.90
2019-05-15T05:14:18.802Z,99.90
2019-05-15T05:16:49.139Z,99.90
2019-05-15T05:19:19.592Z,99.90
2019-05-15T05:21:47.979Z,99.90
2019-05-15T05:24:18.565Z,99.90
2019-05-15T05:26:49.030Z,99.90
2019-05-15T05:29:17.835Z,99.90
2019-05-15T05:31:49.044Z,99.90
2019-05-15T05:34:19.229Z,99.90
2019-05-15T05:36:47.970Z,99.90
2019-05-15T05:39:17.687Z,99.90
2019-05-15T05:41:48.691Z,99.90
2019-05-15T05:44:18.842Z,99.90
2019-05-15T05:46:49.264Z,99.90
2019-05-15T05:49:18.552Z,99.90
2019-05-15T05:51:48.072Z,99.90
2019-05-15T05:54:18.199Z,99.90
2019-05-15T05:56:48.290Z,99.90
2019-05-15T05:59:18.652Z,99.90
2019-05-15T06:01:48.384Z,99.90
2019-05-15T06:04:18.582Z,99.90
2019-05-15T06:06:50.081Z,99.90
2019-05-15T06:09:18.247Z,99.90
2019-05-15T06:11:48.683Z,99.90
2019-05-15T06:14:18.305Z,99.90
2019-05-15T06:16:48.181Z,99.90
2019-05-15T06:19:18.289Z,99.90
2019-05-15T06:21:56.706Z,99.90
2019-05-15T06:24:18.068Z,99.90
2019-05-15T06:26:48.198Z,99.90
2019-05-15T06:29:17.926Z,99.90
2019-05-15T06:31:48.426Z,99.90
2019-05-15T06:34:17.840Z,99.90
2019-05-15T06:36:48.567Z,99.90
2019-05-15T06:39:17.867Z,99.90
2019-05-15T06:41:48.325Z,99.90
2019-05-15T06:44:18.586Z,99.90
2019-05-15T06:46:48.875Z,99.90
2019-05-15T06:49:18.042Z,99.90
2019-05-15T06:51:48.807Z,99.90
2019-05-15T06:54:18.921Z,99.90
2019-05-15T06:56:49.287Z,99.90
2019-05-15T06:59:18.071Z,99.90
2019-05-15T07:01:48.124Z,99.90
2019-05-15T07:04:18.183Z,99.90
2019-05-15T07:06:48.851Z,99.90
2019-05-15T07:09:17.987Z,99.90
2019-05-15T07:11:48.311Z,99.90
2019-05-15T07:14:18.121Z,99.90
2019-05-15T07:16:48.785Z,99.90
2019-05-15T07:19:19.016Z,99.90
2019-05-15T07:21:48.732Z,99.90
2019-05-15T07:24:18.263Z,99.90
2019-05-15T07:26:48.456Z,99.80
2019-05-15T07:29:18.871Z,98.70
2019-05-15T07:31:47.833Z,97.70
2019-05-15T07:34:18.640Z,96.90
2019-05-15T07:36:49.226Z,95.80
2019-05-15T07:39:17.989Z,94.90
2019-05-15T07:41:48.344Z,94.20
2019-05-15T07:44:18.906Z,93.50
2019-05-15T07:46:54.535Z,92.60
2019-05-15T07:49:23.034Z,93.00
2019-05-15T07:51:51.461Z,92.60
2019-05-15T07:54:19.919Z,91.20
2019-05-15T07:56:48.803Z,90.50
2019-05-15T07:59:18.682Z,86.40
2019-05-15T08:01:48.832Z,84.70
2019-05-15T08:04:26.276Z,85.40
2019-05-15T08:06:49.413Z,83.30
2019-05-15T08:09:18.047Z,82.70
2019-05-15T08:11:48.584Z,80.90
2019-05-15T08:14:18.504Z,80.50
2019-05-15T08:16:48.499Z,78.20
2019-05-15T08:19:18.386Z,76.30
2019-05-15T08:21:51.438Z,73.20
2019-05-15T08:24:18.919Z,71.90
2019-05-15T08:26:48.648Z,70.20
2019-05-15T08:29:21.458Z,67.20
2019-05-15T08:31:48.250Z,65.00
2019-05-15T08:34:19.432Z,63.90
2019-05-15T08:36:48.272Z,62.90
2019-05-15T08:39:18.954Z,61.80
2019-05-15T08:41:48.479Z,60.00
2019-05-15T08:44:18.604Z,57.70
2019-05-15T08:46:48.004Z,56.60
2019-05-15T08:49:19.892Z,55.60
2019-05-15T08:51:48.643Z,55.40
2019-05-15T08:54:18.294Z,55.40
2019-05-15T08:56:48.383Z,54.80
2019-05-15T08:59:18.773Z,54.50
2019-05-15T09:01:49.010Z,53.20
2019-05-15T09:04:27.910Z,52.30
2019-05-15T09:06:49.697Z,52.40
2019-05-15T09:09:18.371Z,52.20
2019-05-15T09:11:48.298Z,50.70
2019-05-15T09:14:18.531Z,51.00
2019-05-15T09:16:48.968Z,50.90
2019-05-15T09:19:18.485Z,49.40
2019-05-15T09:21:49.116Z,48.20
2019-05-15T09:24:19.673Z,47.70
2019-05-15T09:26:48.716Z,47.70
2019-05-15T09:29:18.285Z,47.80
2019-05-15T09:31:48.324Z,46.60
2019-05-15T09:34:18.565Z,46.90
2019-05-15T09:36:48.558Z,47.50
2019-05-15T09:39:18.341Z,47.90
2019-05-15T09:41:48.742Z,47.50
2019-05-15T09:44:21.770Z,47.30
2019-05-15T09:46:48.872Z,47.20
2019-05-15T09:49:18.204Z,47.70
2019-05-15T09:51:49.036Z,47.00
2019-05-15T09:54:19.296Z,47.00
2019-05-15T09:56:49.402Z,46.70
2019-05-15T09:59:18.615Z,46.30
2019-05-15T10:01:48.263Z,45.90
2019-05-15T10:04:19.031Z,45.60
2019-05-15T10:06:48.545Z,45.90
2019-05-15T10:09:18.876Z,45.20
2019-05-15T10:11:49.194Z,45.30
2019-05-15T10:14:19.461Z,45.00
2019-05-15T10:16:48.759Z,45.10
2019-05-15T10:19:18.517Z,45.00
2019-05-15T10:21:52.846Z,44.60
2019-05-15T10:24:18.286Z,44.70
2019-05-15T10:26:48.911Z,45.00
2019-05-15T10:29:16.985Z,44.50
2019-05-15T10:31:48.104Z,44.60
2019-05-15T10:34:18.101Z,44.60
2019-05-15T10:36:45.798Z,44.20
2019-05-15T10:39:14.398Z,44.30
2019-05-15T10:41:42.914Z,42.10
2019-05-15T10:44:11.358Z,41.90
2019-05-15T10:46:39.824Z,42.80
2019-05-15T10:49:08.796Z,42.40
2019-05-15T10:51:39.656Z,42.20
2019-05-15T10:54:08.563Z,43.10
2019-05-15T10:56:38.527Z,43.50
2019-05-15T10:59:08.539Z,42.80
2019-05-15T11:01:38.721Z,42.40
2019-05-15T11:04:09.164Z,42.80
2019-05-15T11:06:38.332Z,43.10
2019-05-15T11:09:08.517Z,43.80
2019-05-15T11:11:37.282Z,44.60
2019-05-15T11:14:08.833Z,44.00
2019-05-15T11:16:38.867Z,43.40
2019-05-15T11:19:08.011Z,43.70
2019-05-15T11:21:36.636Z,42.70
2019-05-15T11:24:05.086Z,42.70
2019-05-15T11:26:33.738Z,43.10
2019-05-15T11:29:02.305Z,43.60
2019-05-15T11:31:30.749Z,43.50
2019-05-15T11:33:59.169Z,42.70
2019-05-15T11:36:28.803Z,42.70
2019-05-15T11:38:57.534Z,42.40
2019-05-15T11:41:29.199Z,42.70
2019-05-15T11:43:56.412Z,43.10
2019-05-15T11:46:25.868Z,42.90
2019-05-15T11:48:55.024Z,42.90
2019-05-15T11:51:23.464Z,43.30
2019-05-15T11:53:51.927Z,43.30
2019-05-15T11:56:20.394Z,43.80
2019-05-15T11:58:48.843Z,43.90
2019-05-15T12:01:19.046Z,43.50
2019-05-15T12:03:47.490Z,43.60
2019-05-15T12:06:22.442Z,43.70
2019-05-15T12:08:46.083Z,44.00
2019-05-15T12:11:30.831Z,43.80
2019-05-15T12:13:44.737Z,43.40
2019-05-15T12:16:13.233Z,43.20
2019-05-15T12:18:41.663Z,43.20
2019-05-15T12:21:10.108Z,42.80
2019-05-15T12:23:38.838Z,42.60
2019-05-15T12:26:09.147Z,42.00
2019-05-15T12:28:40.555Z,41.90
2019-05-15T12:31:08.990Z,41.60
2019-05-15T12:33:38.478Z,41.70
2019-05-15T12:36:10.574Z,41.30
2019-05-15T12:38:39.737Z,41.50
2019-05-15T13:01:17.032Z,41.30
2019-05-15T13:03:40.863Z,41.00
2019-05-15T13:06:09.309Z,41.40
2019-05-15T13:08:38.459Z,41.70
2019-05-15T13:11:09.753Z,42.10
2019-05-15T13:13:37.765Z,42.70
2019-05-15T13:16:06.365Z,42.60
2019-05-15T13:18:34.861Z,42.80
2019-05-15T13:21:03.302Z,42.60
2019-05-15T13:23:32.079Z,42.60
2019-05-15T13:26:00.545Z,42.40
2019-05-15T13:28:29.344Z,41.00
2019-05-15T13:30:59.672Z,40.20
2019-05-15T13:33:28.400Z,40.20
2019-05-15T13:35:58.477Z,40.00
2019-05-15T13:38:28.783Z,41.10
2019-05-15T13:40:58.875Z,41.00
2019-05-15T13:43:28.988Z,41.00
2019-05-15T13:45:58.717Z,42.00
2019-05-15T13:48:29.354Z,42.90
2019-05-15T13:50:58.969Z,43.70
2019-05-15T13:53:27.934Z,43.90
2019-05-15T13:55:56.623Z,43.70
2019-05-15T13:58:25.076Z,44.60
2019-05-15T14:00:53.524Z,45.50
2019-05-15T14:03:22.072Z,46.60
2019-05-15T14:05:50.523Z,47.60
2019-05-15T14:08:18.975Z,47.80
2019-05-15T14:10:48.801Z,47.20
2019-05-15T14:13:18.881Z,48.50
2019-05-15T14:15:48.783Z,50.20
2019-05-15T14:18:19.793Z,51.40
2019-05-15T14:20:49.062Z,52.60
2019-05-15T14:23:18.568Z,51.80
2019-05-15T14:25:48.278Z,55.00
2019-05-15T14:28:18.894Z,55.70
2019-05-15T14:30:47.201Z,56.00
2019-05-15T14:33:15.626Z,56.30
2019-05-15T14:35:44.348Z,56.90
2019-05-15T14:38:12.780Z,56.20
2019-05-15T14:40:41.313Z,57.20
2019-05-15T14:43:09.771Z,57.40
2019-05-15T14:45:38.912Z,58.00
2019-05-15T14:48:08.987Z,58.10
2019-05-15T14:50:38.431Z,58.00
2019-05-15T14:53:09.499Z,59.00
2019-05-15T14:55:43.938Z,59.10
2019-05-15T14:58:09.636Z,58.60
2019-05-15T15:00:41.701Z,58.70
2019-05-15T15:03:09.807Z,58.60
2019-05-15T15:05:39.017Z,58.70
2019-05-15T15:08:18.502Z,58.90
2019-05-15T15:10:38.396Z,59.60
2019-05-15T15:13:09.445Z,59.60
2019-05-15T15:15:37.942Z,60.10
2019-05-15T15:18:08.234Z,61.30
2019-05-15T15:20:38.015Z,61.00
2019-05-15T15:23:08.493Z,60.20
2019-05-15T15:25:39.543Z,60.00
2019-05-15T15:28:08.240Z,60.30
2019-05-15T15:30:38.549Z,60.60
2019-05-15T15:33:08.505Z,60.80
2019-05-15T15:35:38.301Z,60.90
2019-05-15T15:38:11.972Z,60.80
2019-05-15T15:40:38.892Z,59.90
2019-05-15T15:43:09.048Z,59.60
2019-05-15T15:45:39.100Z,59.60
2019-05-15T15:48:08.382Z,59.70
2019-05-15T15:50:38.329Z,59.70
2019-05-15T15:53:08.974Z,59.80
2019-05-15T15:55:38.555Z,59.50
2019-05-15T15:58:08.920Z,59.30
2019-05-15T16:00:38.379Z,59.60
2019-05-15T16:03:08.451Z,59.20
2019-05-15T16:05:38.486Z,60.00
2019-05-15T16:08:08.473Z,60.70
2019-05-15T16:10:37.913Z,59.80
2019-05-15T16:13:08.723Z,60.00
2019-05-15T16:15:38.535Z,60.40
2019-05-15T16:18:08.881Z,60.60
2019-05-15T16:20:39.655Z,60.90
2019-05-15T16:23:08.663Z,61.00
2019-05-15T16:25:38.542Z,61.60
2019-05-15T16:28:08.861Z,61.50
2019-05-15T16:30:50.270Z,62.50
2019-05-15T16:33:09.536Z,61.80
2019-05-15T16:35:38.151Z,62.00
2019-05-15T16:38:09.301Z,62.40
2019-05-15T16:40:38.281Z,62.40
2019-05-15T16:43:07.058Z,62.40
2019-05-15T16:45:38.496Z,62.50
2019-05-15T16:48:05.773Z,63.30
2019-05-15T16:50:34.219Z,63.00
2019-05-15T16:53:02.709Z,62.90
2019-05-15T16:55:31.424Z,62.60
2019-05-15T16:58:01.443Z,62.70
2019-05-15T17:00:30.370Z,63.60
2019-05-15T17:03:09.159Z,63.50
2019-05-15T17:05:30.628Z,63.90
2019-05-15T17:08:01.614Z,64.20
2019-05-15T17:10:30.222Z,63.90
2019-05-15T17:12:59.116Z,64.70
2019-05-15T17:15:28.416Z,65.50
2019-05-15T17:17:58.325Z,65.90
2019-05-15T17:20:28.394Z,66.30
2019-05-15T17:22:57.972Z,66.70
2019-05-15T17:25:26.784Z,67.40
2019-05-15T17:27:55.287Z,67.70
2019-05-15T17:30:23.781Z,68.00
2019-05-15T17:32:52.423Z,68.80
2019-05-15T17:35:20.963Z,68.50
2019-05-15T17:37:49.421Z,68.60
2019-05-15T17:40:21.812Z,68.90
2019-05-15T17:42:49.957Z,69.20
2019-05-15T17:45:22.149Z,69.90
2019-05-15T17:47:52.595Z,70.30
2019-05-15T17:50:21.148Z,70.90
2019-05-15T17:52:49.725Z,71.50
2019-05-15T17:55:18.743Z,71.90
2019-05-15T17:57:56.493Z,72.70
2019-05-15T18:00:19.286Z,73.20
2019-05-15T18:02:48.603Z,73.30
2019-05-15T18:05:19.013Z,74.50
2019-05-15T18:07:48.910Z,74.60
2019-05-15T18:10:18.766Z,75.00
2019-05-15T18:12:48.862Z,75.60
2019-05-15T18:15:18.556Z,76.20
2019-05-15T18:17:48.165Z,78.10
2019-05-15T18:20:29.428Z,78.00
2019-05-15T18:22:59.062Z,79.90
2019-05-15T18:25:27.889Z,83.30
2019-05-15T18:27:58.894Z,89.30
2019-05-15T18:30:28.278Z,93.10
2019-05-15T18:32:58.758Z,97.70
2019-05-15T18:35:29.479Z,99.90
2019-05-15T18:37:59.125Z,99.90
2019-05-15T18:40:27.899Z,99.90
2019-05-15T18:42:59.130Z,99.90
2019-05-15T18:45:28.775Z,99.90
2019-05-15T18:47:58.780Z,99.90
2019-05-15T18:50:28.449Z,99.90
2019-05-15T18:52:58.460Z,99.90
2019-05-15T18:55:27.189Z,99.90
2019-05-15T18:57:58.203Z,99.90
2019-05-15T19:00:28.631Z,99.90
2019-05-15T19:02:59.212Z,99.90
2019-05-15T19:05:28.108Z,99.90
2019-05-15T19:07:58.026Z,99.90
2019-05-15T19:10:28.228Z,99.90
2019-05-15T19:12:58.212Z,99.90
2019-05-15T19:15:28.657Z,99.90
2019-05-15T19:17:58.577Z,99.90
2019-05-15T19:20:28.103Z,99.90
2019-05-15T19:22:58.732Z,99.90
2019-05-15T19:25:28.626Z,99.90
2019-05-15T19:27:57.311Z,99.90
2019-05-15T19:30:28.480Z,99.90
2019-05-15T19:32:58.247Z,99.90
2019-05-15T19:35:28.046Z,99.90
2019-05-15T19:37:58.569Z,99.90
2019-05-15T19:40:28.326Z,99.90
2019-05-15T19:42:59.060Z,99.90
2019-05-15T19:45:28.141Z,99.90
2019-05-15T19:47:58.805Z,99.90
2019-05-15T19:50:28.770Z,99.90
2019-05-15T19:52:59.175Z,99.90
2019-05-15T19:55:27.391Z,99.90
2019-05-15T19:57:55.864Z,99.90
2019-05-15T20:00:24.454Z,99.90
2019-05-15T20:02:52.967Z,99.90
2019-05-15T20:05:21.477Z,99.90
2019-05-15T20:07:50.024Z,99.90
2019-05-15T20:10:18.918Z,99.90
2019-05-15T20:12:47.938Z,99.90
2019-05-15T20:15:19.067Z,99.90
2019-05-15T20:17:47.828Z,99.90
2019-05-15T20:20:18.653Z,99.90
2019-05-15T20:22:46.812Z,99.90
2019-05-15T20:25:15.324Z,99.90
2019-05-15T20:27:43.782Z,99.90
2019-05-15T20:30:13.191Z,99.90
2019-05-15T20:32:41.659Z,99.90
2019-05-15T20:35:10.435Z,99.90
2019-05-15T20:37:39.909Z,99.90
2019-05-15T20:40:09.954Z,99.90
2019-05-15T20:42:38.713Z,99.90
2019-05-15T20:45:12.023Z,99.90
2019-05-15T20:47:39.279Z,99.90
2019-05-15T20:50:09.035Z,99.90
2019-05-15T20:52:39.460Z,99.90
2019-05-15T20:55:08.985Z,99.90
2019-05-15T20:57:40.545Z,99.90
2019-05-15T21:00:10.117Z,99.90
2019-05-15T21:02:38.800Z,99.90
2019-05-15T21:05:08.856Z,99.90
2019-05-15T21:07:39.989Z,99.90
2019-05-15T21:10:09.545Z,99.90
2019-05-15T21:12:41.059Z,99.90
2019-05-15T21:15:09.743Z,99.90
2019-05-15T21:17:40.161Z,99.90
2019-05-15T21:20:09.605Z,99.90
2019-05-15T21:22:40.359Z,99.90
2019-05-15T21:25:10.919Z,99.90
2019-05-15T21:27:42.373Z,99.90
2019-05-15T21:30:10.128Z,99.90
2019-05-15T21:32:38.582Z,99.90
2019-05-15T21:35:09.254Z,99.90
2019-05-15T21:37:38.864Z,99.90
2019-05-15T21:40:09.044Z,99.90
2019-05-15T21:42:39.086Z,99.90
2019-05-15T21:45:14.289Z,99.90
2019-05-15T21:47:39.297Z,99.90
2019-05-15T21:50:09.029Z,99.90
2019-05-15T21:52:39.135Z,99.90
2019-05-15T21:55:09.496Z,99.90
2019-05-15T21:57:40.081Z,99.90
2019-05-15T22:00:42.829Z,99.90
2019-05-15T22:03:09.151Z,99.90
2019-05-15T22:05:48.436Z,99.90
2019-05-15T22:08:18.217Z,99.90
2019-05-15T22:10:53.974Z,99.90
2019-05-15T22:13:25.567Z,99.90
2019-05-15T22:15:59.257Z,99.90
2019-05-15T22:18:28.163Z,99.90
2019-05-15T22:20:58.394Z,99.90
2019-05-15T22:23:27.897Z,99.90
2019-05-15T22:25:59.588Z,99.90
2019-05-15T22:28:28.378Z,99.90
2019-05-15T22:30:58.434Z,99.90
2019-05-15T22:33:28.375Z,99.90
2019-05-15T22:35:59.261Z,99.90
2019-05-15T22:38:28.543Z,99.90
2019-05-15T22:40:57.053Z,99.90
2019-05-15T22:43:25.472Z,99.90
2019-05-15T22:45:53.899Z,99.90
2019-05-15T22:48:22.330Z,99.90
2019-05-15T22:50:50.749Z,99.90
2019-05-15T22:53:19.279Z,99.90
2019-05-15T22:55:48.540Z,99.90
2019-05-15T22:58:17.122Z,99.90
2019-05-15T23:00:45.654Z,99.90
2019-05-15T23:03:14.069Z,99.90
2019-05-15T23:05:42.560Z,99.90
2019-05-15T23:08:11.002Z,99.90
2019-05-15T23:10:40.706Z,99.90
2019-05-15T23:13:09.139Z,99.90
2019-05-15T23:15:38.525Z,99.90
2019-05-15T23:18:08.559Z,99.90
2019-05-15T23:20:38.797Z,99.90
2019-05-15T23:23:08.759Z,99.90
2019-05-15T23:25:38.113Z,99.90
2019-05-15T23:28:08.534Z,99.90
2019-05-15T23:30:36.992Z,99.90
2019-05-15T23:33:05.414Z,99.90
2019-05-15T23:35:38.027Z,99.90
2019-05-15T23:38:03.995Z,99.90
2019-05-15T23:40:32.409Z,99.90
2019-05-15T23:43:00.841Z,99.90
2019-05-15T23:45:29.273Z,99.90
2019-05-15T23:47:58.129Z,99.90
2019-05-15T23:50:28.843Z,99.90
2019-05-15T23:52:58.343Z,99.90
2019-05-15T23:55:28.523Z,99.90
2019-05-15T23:57:58.419Z,99.90
